sensor_id;sensor_type;location;lat;lon;timestamp;P1;durP1;ratioP1;P2;durP2;ratioP2
77170;SDS011;66144;50.020;14.422;2023-07-02T00:02:06;3.85;;;2.08;;
77170;SDS011;66144;50.020;14.422;2023-07-02T00:04:31;5.03;;;2.17;;
77170;SDS011;66144;50.020;14.422;2023-07-02T00:06:56;5.05;;;2.00;;
77170;SDS011;66144;50.020;14.422;2023-07-02T00:09:22;4.00;;;1.45;;
77170;SDS011;66144;50.020;14.422;2023-07-02T00:11:47;3.22;;;1.60;;
77170;SDS011;66144;50.020;14.422;2023-07-02T00:14:13;3.10;;;1.85;;
77170;SDS011;66144;50.020;14.422;2023-07-02T00:16:39;4.90;;;1.80;;
77170;SDS011;66144;50.020;14.422;2023-07-02T00:19:08;4.32;;;1.98;;
77170;SDS011;66144;50.020;14.422;2023-07-02T00:21:33;2.78;;;1.48;;
77170;SDS011;66144;50.020;14.422;2023-07-02T00:23:59;3.67;;;1.90;;
77170;SDS011;66144;50.020;14.422;2023-07-02T00:26:26;2.88;;;1.75;;
77170;SDS011;66144;50.020;14.422;2023-07-02T00:28:53;2.70;;;1.42;;
77170;SDS011;66144;50.020;14.422;2023-07-02T00:31:19;2.38;;;1.60;;
77170;SDS011;66144;50.020;14.422;2023-07-02T00:33:44;2.10;;;1.25;;
77170;SDS011;66144;50.020;14.422;2023-07-02T00:36:10;3.78;;;1.17;;
77170;SDS011;66144;50.020;14.422;2023-07-02T00:38:40;2.00;;;1.20;;
77170;SDS011;66144;50.020;14.422;2023-07-02T00:41:07;2.60;;;1.30;;
77170;SDS011;66144;50.020;14.422;2023-07-02T00:43:32;2.47;;;1.20;;
77170;SDS011;66144;50.020;14.422;2023-07-02T00:45:58;2.15;;;1.23;;
77170;SDS011;66144;50.020;14.422;2023-07-02T00:48:23;2.03;;;1.10;;
77170;SDS011;66144;50.020;14.422;2023-07-02T00:50:49;1.73;;;1.27;;
77170;SDS011;66144;50.020;14.422;2023-07-02T00:53:14;2.67;;;1.25;;
77170;SDS011;66144;50.020;14.422;2023-07-02T00:55:40;2.53;;;1.23;;
77170;SDS011;66144;50.020;14.422;2023-07-02T00:58:05;2.63;;;1.20;;
77170;SDS011;66144;50.020;14.422;2023-07-02T01:00:31;1.77;;;1.30;;
77170;SDS011;66144;50.020;14.422;2023-07-02T01:02:57;1.35;;;1.10;;
77170;SDS011;66144;50.020;14.422;2023-07-02T01:05:25;2.20;;;1.10;;
77170;SDS011;66144;50.020;14.422;2023-07-02T01:07:51;1.98;;;1.13;;
77170;SDS011;66144;50.020;14.422;2023-07-02T01:10:17;2.70;;;1.35;;
77170;SDS011;66144;50.020;14.422;2023-07-02T01:12:42;2.53;;;1.10;;
77170;SDS011;66144;50.020;14.422;2023-07-02T01:15:09;1.83;;;1.20;;
77170;SDS011;66144;50.020;14.422;2023-07-02T01:17:35;2.03;;;1.30;;
77170;SDS011;66144;50.020;14.422;2023-07-02T01:20:07;2.58;;;1.35;;
77170;SDS011;66144;50.020;14.422;2023-07-02T01:22:34;1.88;;;1.30;;
77170;SDS011;66144;50.020;14.422;2023-07-02T01:25:01;2.03;;;1.23;;
77170;SDS011;66144;50.020;14.422;2023-07-02T01:27:30;2.28;;;1.30;;
77170;SDS011;66144;50.020;14.422;2023-07-02T01:29:55;1.85;;;1.05;;
77170;SDS011;66144;50.020;14.422;2023-07-02T01:32:22;2.15;;;1.15;;
77170;SDS011;66144;50.020;14.422;2023-07-02T01:34:48;2.45;;;1.30;;
77170;SDS011;66144;50.020;14.422;2023-07-02T01:37:14;2.65;;;1.23;;
77170;SDS011;66144;50.020;14.422;2023-07-02T01:39:40;2.50;;;1.30;;
77170;SDS011;66144;50.020;14.422;2023-07-02T01:42:23;2.53;;;1.50;;
77170;SDS011;66144;50.020;14.422;2023-07-02T01:44:49;2.88;;;1.30;;
77170;SDS011;66144;50.020;14.422;2023-07-02T01:47:16;2.53;;;1.40;;
77170;SDS011;66144;50.020;14.422;2023-07-02T01:49:42;2.53;;;1.45;;
77170;SDS011;66144;50.020;14.422;2023-07-02T01:52:08;2.33;;;1.50;;
77170;SDS011;66144;50.020;14.422;2023-07-02T01:54:34;2.47;;;1.30;;
77170;SDS011;66144;50.020;14.422;2023-07-02T01:57:00;1.95;;;1.17;;
77170;SDS011;66144;50.020;14.422;2023-07-02T01:59:26;3.13;;;1.50;;
77170;SDS011;66144;50.020;14.422;2023-07-02T02:01:51;3.95;;;1.85;;
77170;SDS011;66144;50.020;14.422;2023-07-02T02:04:17;2.58;;;1.35;;
77170;SDS011;66144;50.020;14.422;2023-07-02T02:06:42;2.20;;;1.35;;
77170;SDS011;66144;50.020;14.422;2023-07-02T02:09:08;2.00;;;1.33;;
77170;SDS011;66144;50.020;14.422;2023-07-02T02:11:40;2.58;;;1.67;;
77170;SDS011;66144;50.020;14.422;2023-07-02T02:14:13;1.77;;;1.13;;
77170;SDS011;66144;50.020;14.422;2023-07-02T02:16:39;2.88;;;1.52;;
77170;SDS011;66144;50.020;14.422;2023-07-02T02:19:04;1.92;;;1.35;;
77170;SDS011;66144;50.020;14.422;2023-07-02T02:21:30;2.97;;;1.50;;
77170;SDS011;66144;50.020;14.422;2023-07-02T02:23:55;2.80;;;1.58;;
77170;SDS011;66144;50.020;14.422;2023-07-02T02:26:21;3.13;;;1.38;;
77170;SDS011;66144;50.020;14.422;2023-07-02T02:28:47;2.03;;;1.30;;
77170;SDS011;66144;50.020;14.422;2023-07-02T02:31:13;2.22;;;1.35;;
77170;SDS011;66144;50.020;14.422;2023-07-02T02:33:40;2.30;;;2.00;;
77170;SDS011;66144;50.020;14.422;2023-07-02T02:36:05;3.28;;;1.45;;
77170;SDS011;66144;50.020;14.422;2023-07-02T02:38:31;2.63;;;1.40;;
77170;SDS011;66144;50.020;14.422;2023-07-02T02:40:56;3.00;;;1.83;;
77170;SDS011;66144;50.020;14.422;2023-07-02T02:43:22;1.80;;;1.20;;
77170;SDS011;66144;50.020;14.422;2023-07-02T02:45:47;2.95;;;2.00;;
77170;SDS011;66144;50.020;14.422;2023-07-02T02:48:13;3.17;;;1.48;;
77170;SDS011;66144;50.020;14.422;2023-07-02T02:50:38;2.90;;;1.73;;
77170;SDS011;66144;50.020;14.422;2023-07-02T02:53:08;3.47;;;1.90;;
77170;SDS011;66144;50.020;14.422;2023-07-02T02:55:35;2.70;;;1.70;;
77170;SDS011;66144;50.020;14.422;2023-07-02T02:58:00;3.05;;;1.33;;
77170;SDS011;66144;50.020;14.422;2023-07-02T03:00:26;2.50;;;1.70;;
77170;SDS011;66144;50.020;14.422;2023-07-02T03:02:51;3.08;;;1.55;;
77170;SDS011;66144;50.020;14.422;2023-07-02T03:05:17;3.60;;;1.60;;
77170;SDS011;66144;50.020;14.422;2023-07-02T03:07:42;2.80;;;1.40;;
77170;SDS011;66144;50.020;14.422;2023-07-02T03:10:08;2.55;;;1.77;;
77170;SDS011;66144;50.020;14.422;2023-07-02T03:12:33;2.53;;;1.58;;
77170;SDS011;66144;50.020;14.422;2023-07-02T03:14:59;2.72;;;1.70;;
77170;SDS011;66144;50.020;14.422;2023-07-02T03:17:24;1.83;;;1.40;;
77170;SDS011;66144;50.020;14.422;2023-07-02T03:19:50;3.17;;;1.80;;
77170;SDS011;66144;50.020;14.422;2023-07-02T03:22:15;3.20;;;1.77;;
77170;SDS011;66144;50.020;14.422;2023-07-02T03:24:41;2.72;;;1.70;;
77170;SDS011;66144;50.020;14.422;2023-07-02T03:27:06;2.70;;;1.70;;
77170;SDS011;66144;50.020;14.422;2023-07-02T03:29:35;2.75;;;1.70;;
77170;SDS011;66144;50.020;14.422;2023-07-02T03:32:01;2.47;;;1.50;;
77170;SDS011;66144;50.020;14.422;2023-07-02T03:34:26;2.80;;;1.60;;
77170;SDS011;66144;50.020;14.422;2023-07-02T03:36:52;3.22;;;1.67;;
77170;SDS011;66144;50.020;14.422;2023-07-02T03:39:17;2.05;;;1.30;;
77170;SDS011;66144;50.020;14.422;2023-07-02T03:41:43;3.55;;;1.63;;
77170;SDS011;66144;50.020;14.422;2023-07-02T03:44:09;2.28;;;1.77;;
77170;SDS011;66144;50.020;14.422;2023-07-02T03:46:34;3.60;;;1.73;;
77170;SDS011;66144;50.020;14.422;2023-07-02T03:49:00;2.38;;;1.70;;
77170;SDS011;66144;50.020;14.422;2023-07-02T03:51:26;2.17;;;1.70;;
77170;SDS011;66144;50.020;14.422;2023-07-02T03:53:51;3.70;;;2.20;;
77170;SDS011;66144;50.020;14.422;2023-07-02T03:56:17;3.35;;;2.13;;
77170;SDS011;66144;50.020;14.422;2023-07-02T03:58:42;4.18;;;2.00;;
77170;SDS011;66144;50.020;14.422;2023-07-02T04:01:08;3.22;;;1.70;;
77170;SDS011;66144;50.020;14.422;2023-07-02T04:03:33;4.72;;;1.55;;
77170;SDS011;66144;50.020;14.422;2023-07-02T04:05:59;3.50;;;1.75;;
77170;SDS011;66144;50.020;14.422;2023-07-02T04:08:25;2.72;;;1.90;;
77170;SDS011;66144;50.020;14.422;2023-07-02T04:10:53;4.07;;;2.10;;
77170;SDS011;66144;50.020;14.422;2023-07-02T04:13:18;2.78;;;1.90;;
77170;SDS011;66144;50.020;14.422;2023-07-02T04:15:45;3.08;;;1.90;;
77170;SDS011;66144;50.020;14.422;2023-07-02T04:18:10;4.20;;;1.90;;
77170;SDS011;66144;50.020;14.422;2023-07-02T04:20:36;2.90;;;1.60;;
77170;SDS011;66144;50.020;14.422;2023-07-02T04:23:03;2.75;;;1.80;;
77170;SDS011;66144;50.020;14.422;2023-07-02T04:25:32;3.08;;;1.85;;
77170;SDS011;66144;50.020;14.422;2023-07-02T04:27:57;3.15;;;2.03;;
77170;SDS011;66144;50.020;14.422;2023-07-02T04:30:23;3.97;;;2.10;;
77170;SDS011;66144;50.020;14.422;2023-07-02T04:32:50;2.83;;;1.98;;
77170;SDS011;66144;50.020;14.422;2023-07-02T04:35:16;3.83;;;1.95;;
77170;SDS011;66144;50.020;14.422;2023-07-02T04:37:41;3.38;;;2.10;;
77170;SDS011;66144;50.020;14.422;2023-07-02T04:40:07;3.78;;;1.90;;
77170;SDS011;66144;50.020;14.422;2023-07-02T04:42:36;2.65;;;1.95;;
77170;SDS011;66144;50.020;14.422;2023-07-02T04:45:06;3.45;;;2.08;;
77170;SDS011;66144;50.020;14.422;2023-07-02T04:47:33;3.70;;;2.30;;
77170;SDS011;66144;50.020;14.422;2023-07-02T04:49:59;2.90;;;2.10;;
77170;SDS011;66144;50.020;14.422;2023-07-02T04:52:25;3.78;;;2.05;;
77170;SDS011;66144;50.020;14.422;2023-07-02T04:54:50;4.65;;;2.10;;
77170;SDS011;66144;50.020;14.422;2023-07-02T04:57:16;5.10;;;2.40;;
77170;SDS011;66144;50.020;14.422;2023-07-02T04:59:41;2.40;;;1.80;;
77170;SDS011;66144;50.020;14.422;2023-07-02T05:02:07;4.63;;;1.92;;
77170;SDS011;66144;50.020;14.422;2023-07-02T05:04:33;4.60;;;2.30;;
77170;SDS011;66144;50.020;14.422;2023-07-02T05:07:01;3.33;;;1.92;;
77170;SDS011;66144;50.020;14.422;2023-07-02T05:09:27;3.40;;;2.20;;
77170;SDS011;66144;50.020;14.422;2023-07-02T05:11:52;3.92;;;2.30;;
77170;SDS011;66144;50.020;14.422;2023-07-02T05:14:17;3.35;;;2.08;;
77170;SDS011;66144;50.020;14.422;2023-07-02T05:16:43;3.40;;;2.03;;
77170;SDS011;66144;50.020;14.422;2023-07-02T05:19:08;5.53;;;2.78;;
77170;SDS011;66144;50.020;14.422;2023-07-02T05:21:34;2.85;;;1.70;;
77170;SDS011;66144;50.020;14.422;2023-07-02T05:23:59;2.53;;;1.95;;
77170;SDS011;66144;50.020;14.422;2023-07-02T05:26:24;3.85;;;2.38;;
77170;SDS011;66144;50.020;14.422;2023-07-02T05:28:51;2.90;;;1.92;;
77170;SDS011;66144;50.020;14.422;2023-07-02T05:31:16;2.67;;;1.70;;
77170;SDS011;66144;50.020;14.422;2023-07-02T05:33:42;5.68;;;2.08;;
77170;SDS011;66144;50.020;14.422;2023-07-02T05:36:07;3.15;;;2.03;;
77170;SDS011;66144;50.020;14.422;2023-07-02T05:38:32;4.40;;;2.08;;
77170;SDS011;66144;50.020;14.422;2023-07-02T05:40:58;2.67;;;2.00;;
77170;SDS011;66144;50.020;14.422;2023-07-02T05:43:26;3.83;;;1.70;;
77170;SDS011;66144;50.020;14.422;2023-07-02T05:45:53;3.20;;;2.15;;
77170;SDS011;66144;50.020;14.422;2023-07-02T05:48:19;3.00;;;1.98;;
77170;SDS011;66144;50.020;14.422;2023-07-02T05:50:44;4.15;;;2.20;;
77170;SDS011;66144;50.020;14.422;2023-07-02T05:53:09;2.53;;;2.00;;
77170;SDS011;66144;50.020;14.422;2023-07-02T05:55:36;3.30;;;1.70;;
77170;SDS011;66144;50.020;14.422;2023-07-02T05:58:01;2.92;;;2.17;;
77170;SDS011;66144;50.020;14.422;2023-07-02T06:00:28;3.58;;;2.20;;
77170;SDS011;66144;50.020;14.422;2023-07-02T06:02:53;3.10;;;2.15;;
77170;SDS011;66144;50.020;14.422;2023-07-02T06:05:19;2.58;;;2.00;;
77170;SDS011;66144;50.020;14.422;2023-07-02T06:07:45;3.40;;;1.85;;
77170;SDS011;66144;50.020;14.422;2023-07-02T06:10:10;4.40;;;2.10;;
77170;SDS011;66144;50.020;14.422;2023-07-02T06:12:35;3.20;;;2.10;;
77170;SDS011;66144;50.020;14.422;2023-07-02T06:15:01;2.85;;;1.98;;
77170;SDS011;66144;50.020;14.422;2023-07-02T06:17:27;3.03;;;1.98;;
77170;SDS011;66144;50.020;14.422;2023-07-02T06:19:52;3.60;;;2.03;;
77170;SDS011;66144;50.020;14.422;2023-07-02T06:22:18;4.75;;;2.40;;
77170;SDS011;66144;50.020;14.422;2023-07-02T06:24:43;3.03;;;2.40;;
77170;SDS011;66144;50.020;14.422;2023-07-02T06:27:08;4.05;;;2.30;;
77170;SDS011;66144;50.020;14.422;2023-07-02T06:29:34;3.25;;;2.30;;
77170;SDS011;66144;50.020;14.422;2023-07-02T06:31:59;4.20;;;2.35;;
77170;SDS011;66144;50.020;14.422;2023-07-02T06:34:25;3.45;;;2.40;;
77170;SDS011;66144;50.020;14.422;2023-07-02T06:36:50;3.45;;;2.22;;
77170;SDS011;66144;50.020;14.422;2023-07-02T06:39:15;7.43;;;3.15;;
77170;SDS011;66144;50.020;14.422;2023-07-02T06:41:41;2.90;;;2.30;;
77170;SDS011;66144;50.020;14.422;2023-07-02T06:44:06;2.90;;;1.92;;
77170;SDS011;66144;50.020;14.422;2023-07-02T06:46:32;3.72;;;2.20;;
77170;SDS011;66144;50.020;14.422;2023-07-02T06:48:57;3.47;;;2.67;;
77170;SDS011;66144;50.020;14.422;2023-07-02T06:51:22;3.38;;;2.38;;
77170;SDS011;66144;50.020;14.422;2023-07-02T06:53:50;3.55;;;2.28;;
77170;SDS011;66144;50.020;14.422;2023-07-02T06:56:15;4.03;;;2.50;;
77170;SDS011;66144;50.020;14.422;2023-07-02T06:58:43;3.95;;;2.30;;
77170;SDS011;66144;50.020;14.422;2023-07-02T07:01:09;2.83;;;2.17;;
77170;SDS011;66144;50.020;14.422;2023-07-02T07:03:35;3.10;;;2.25;;
77170;SDS011;66144;50.020;14.422;2023-07-02T07:06:00;3.80;;;2.42;;
77170;SDS011;66144;50.020;14.422;2023-07-02T07:08:26;3.30;;;2.50;;
77170;SDS011;66144;50.020;14.422;2023-07-02T07:10:52;4.45;;;2.17;;
77170;SDS011;66144;50.020;14.422;2023-07-02T07:13:17;4.57;;;2.90;;
77170;SDS011;66144;50.020;14.422;2023-07-02T07:15:42;3.53;;;2.40;;
77170;SDS011;66144;50.020;14.422;2023-07-02T07:18:08;4.18;;;2.58;;
77170;SDS011;66144;50.020;14.422;2023-07-02T07:20:34;3.65;;;2.60;;
77170;SDS011;66144;50.020;14.422;2023-07-02T07:23:01;3.42;;;2.35;;
77170;SDS011;66144;50.020;14.422;2023-07-02T07:25:27;3.55;;;2.83;;
77170;SDS011;66144;50.020;14.422;2023-07-02T07:27:53;3.65;;;2.63;;
77170;SDS011;66144;50.020;14.422;2023-07-02T07:30:18;3.28;;;2.50;;
77170;SDS011;66144;50.020;14.422;2023-07-02T07:32:48;5.45;;;2.70;;
77170;SDS011;66144;50.020;14.422;2023-07-02T07:35:17;3.38;;;2.45;;
77170;SDS011;66144;50.020;14.422;2023-07-02T07:37:43;3.58;;;2.40;;
77170;SDS011;66144;50.020;14.422;2023-07-02T07:40:09;3.67;;;2.50;;
77170;SDS011;66144;50.020;14.422;2023-07-02T07:42:34;4.22;;;2.80;;
77170;SDS011;66144;50.020;14.422;2023-07-02T07:45:00;2.92;;;2.28;;
77170;SDS011;66144;50.020;14.422;2023-07-02T07:47:25;3.50;;;2.55;;
77170;SDS011;66144;50.020;14.422;2023-07-02T07:49:51;3.78;;;2.20;;
77170;SDS011;66144;50.020;14.422;2023-07-02T07:52:16;4.38;;;2.97;;
77170;SDS011;66144;50.020;14.422;2023-07-02T07:54:41;3.65;;;2.40;;
77170;SDS011;66144;50.020;14.422;2023-07-02T07:57:07;5.20;;;2.40;;
77170;SDS011;66144;50.020;14.422;2023-07-02T07:59:32;3.20;;;2.28;;
77170;SDS011;66144;50.020;14.422;2023-07-02T08:01:58;3.85;;;2.35;;
77170;SDS011;66144;50.020;14.422;2023-07-02T08:04:23;4.40;;;2.38;;
77170;SDS011;66144;50.020;14.422;2023-07-02T08:06:49;2.95;;;2.33;;
77170;SDS011;66144;50.020;14.422;2023-07-02T08:09:14;3.22;;;2.17;;
77170;SDS011;66144;50.020;14.422;2023-07-02T08:11:39;3.10;;;2.10;;
77170;SDS011;66144;50.020;14.422;2023-07-02T08:14:05;2.75;;;2.17;;
77170;SDS011;66144;50.020;14.422;2023-07-02T08:16:30;3.88;;;2.20;;
77170;SDS011;66144;50.020;14.422;2023-07-02T08:18:55;3.35;;;2.10;;
77170;SDS011;66144;50.020;14.422;2023-07-02T08:21:21;2.63;;;2.10;;
77170;SDS011;66144;50.020;14.422;2023-07-02T08:23:46;3.45;;;1.83;;
77170;SDS011;66144;50.020;14.422;2023-07-02T08:26:11;3.83;;;2.38;;
77170;SDS011;66144;50.020;14.422;2023-07-02T08:28:38;3.35;;;2.17;;
77170;SDS011;66144;50.020;14.422;2023-07-02T08:31:04;3.50;;;2.45;;
77170;SDS011;66144;50.020;14.422;2023-07-02T08:33:29;2.65;;;2.10;;
77170;SDS011;66144;50.020;14.422;2023-07-02T08:35:55;3.40;;;2.17;;
77170;SDS011;66144;50.020;14.422;2023-07-02T08:38:22;3.75;;;2.30;;
77170;SDS011;66144;50.020;14.422;2023-07-02T08:40:48;3.15;;;2.13;;
77170;SDS011;66144;50.020;14.422;2023-07-02T08:43:14;3.47;;;2.10;;
77170;SDS011;66144;50.020;14.422;2023-07-02T08:45:40;3.05;;;2.05;;
77170;SDS011;66144;50.020;14.422;2023-07-02T08:48:12;2.35;;;1.90;;
77170;SDS011;66144;50.020;14.422;2023-07-02T08:50:38;3.22;;;2.20;;
77170;SDS011;66144;50.020;14.422;2023-07-02T08:53:03;2.90;;;2.00;;
77170;SDS011;66144;50.020;14.422;2023-07-02T08:55:29;3.72;;;1.67;;
77170;SDS011;66144;50.020;14.422;2023-07-02T08:57:55;3.63;;;2.10;;
77170;SDS011;66144;50.020;14.422;2023-07-02T09:00:25;2.90;;;2.30;;
77170;SDS011;66144;50.020;14.422;2023-07-02T09:02:51;3.10;;;2.17;;
77170;SDS011;66144;50.020;14.422;2023-07-02T09:05:16;3.03;;;2.20;;
77170;SDS011;66144;50.020;14.422;2023-07-02T09:07:48;3.17;;;2.17;;
77170;SDS011;66144;50.020;14.422;2023-07-02T09:10:28;4.20;;;2.55;;
77170;SDS011;66144;50.020;14.422;2023-07-02T09:13:07;2.65;;;2.28;;
77170;SDS011;66144;50.020;14.422;2023-07-02T09:15:43;3.13;;;2.30;;
77170;SDS011;66144;50.020;14.422;2023-07-02T09:18:21;6.47;;;2.47;;
77170;SDS011;66144;50.020;14.422;2023-07-02T09:20:53;3.70;;;2.70;;
77170;SDS011;66144;50.020;14.422;2023-07-02T09:23:19;3.25;;;2.40;;
77170;SDS011;66144;50.020;14.422;2023-07-02T09:25:46;3.35;;;2.55;;
77170;SDS011;66144;50.020;14.422;2023-07-02T09:28:18;4.15;;;2.58;;
77170;SDS011;66144;50.020;14.422;2023-07-02T09:30:50;2.90;;;2.50;;
77170;SDS011;66144;50.020;14.422;2023-07-02T09:33:15;7.32;;;2.80;;
77170;SDS011;66144;50.020;14.422;2023-07-02T09:35:41;2.55;;;2.20;;
77170;SDS011;66144;50.020;14.422;2023-07-02T09:38:07;4.18;;;2.30;;
77170;SDS011;66144;50.020;14.422;2023-07-02T09:40:33;4.72;;;1.98;;
77170;SDS011;66144;50.020;14.422;2023-07-02T09:42:59;2.95;;;2.38;;
77170;SDS011;66144;50.020;14.422;2023-07-02T09:45:25;2.78;;;1.95;;
77170;SDS011;66144;50.020;14.422;2023-07-02T09:47:50;3.03;;;1.70;;
77170;SDS011;66144;50.020;14.422;2023-07-02T09:50:19;3.35;;;2.20;;
77170;SDS011;66144;50.020;14.422;2023-07-02T09:52:45;3.30;;;2.47;;
77170;SDS011;66144;50.020;14.422;2023-07-02T09:55:11;3.00;;;2.42;;
77170;SDS011;66144;50.020;14.422;2023-07-02T09:57:37;3.25;;;2.58;;
77170;SDS011;66144;50.020;14.422;2023-07-02T10:00:04;2.72;;;2.20;;
77170;SDS011;66144;50.020;14.422;2023-07-02T10:02:32;4.55;;;2.35;;
77170;SDS011;66144;50.020;14.422;2023-07-02T10:04:57;4.28;;;2.42;;
77170;SDS011;66144;50.020;14.422;2023-07-02T10:07:27;2.78;;;2.33;;
77170;SDS011;66144;50.020;14.422;2023-07-02T10:12:25;3.50;;;2.37;;
77170;SDS011;66144;50.020;14.422;2023-07-02T10:14:53;4.72;;;2.75;;
77170;SDS011;66144;50.020;14.422;2023-07-02T10:17:23;3.92;;;2.60;;
77170;SDS011;66144;50.020;14.422;2023-07-02T10:19:56;2.92;;;2.22;;
77170;SDS011;66144;50.020;14.422;2023-07-02T10:22:26;4.10;;;2.47;;
77170;SDS011;66144;50.020;14.422;2023-07-02T10:24:55;3.90;;;2.42;;
77170;SDS011;66144;50.020;14.422;2023-07-02T10:27:36;5.20;;;3.05;;
77170;SDS011;66144;50.020;14.422;2023-07-02T10:30:06;3.88;;;2.53;;
77170;SDS011;66144;50.020;14.422;2023-07-02T10:32:33;5.43;;;3.17;;
77170;SDS011;66144;50.020;14.422;2023-07-02T10:34:59;4.53;;;2.95;;
77170;SDS011;66144;50.020;14.422;2023-07-02T10:37:34;4.93;;;3.30;;
77170;SDS011;66144;50.020;14.422;2023-07-02T10:40:02;6.10;;;2.75;;
77170;SDS011;66144;50.020;14.422;2023-07-02T10:42:30;6.18;;;3.45;;
77170;SDS011;66144;50.020;14.422;2023-07-02T10:44:55;5.80;;;3.70;;
77170;SDS011;66144;50.020;14.422;2023-07-02T10:47:21;7.47;;;3.22;;
77170;SDS011;66144;50.020;14.422;2023-07-02T10:49:46;6.00;;;3.05;;
77170;SDS011;66144;50.020;14.422;2023-07-02T10:52:12;6.68;;;3.33;;
77170;SDS011;66144;50.020;14.422;2023-07-02T10:54:44;6.88;;;3.47;;
77170;SDS011;66144;50.020;14.422;2023-07-02T10:57:13;5.00;;;3.08;;
77170;SDS011;66144;50.020;14.422;2023-07-02T10:59:39;5.40;;;3.15;;
77170;SDS011;66144;50.020;14.422;2023-07-02T11:02:04;4.70;;;2.95;;
77170;SDS011;66144;50.020;14.422;2023-07-02T11:04:31;5.32;;;3.08;;
77170;SDS011;66144;50.020;14.422;2023-07-02T11:06:57;4.80;;;3.20;;
77170;SDS011;66144;50.020;14.422;2023-07-02T11:09:23;5.68;;;3.35;;
77170;SDS011;66144;50.020;14.422;2023-07-02T11:11:56;4.47;;;3.17;;
77170;SDS011;66144;50.020;14.422;2023-07-02T11:16:54;4.90;;;2.85;;
77170;SDS011;66144;50.020;14.422;2023-07-02T11:19:20;4.95;;;3.35;;
77170;SDS011;66144;50.020;14.422;2023-07-02T11:21:52;5.97;;;3.20;;
77170;SDS011;66144;50.020;14.422;2023-07-02T11:24:31;5.32;;;3.15;;
77170;SDS011;66144;50.020;14.422;2023-07-02T11:27:02;5.22;;;3.10;;
77170;SDS011;66144;50.020;14.422;2023-07-02T11:29:31;5.97;;;3.00;;
77170;SDS011;66144;50.020;14.422;2023-07-02T11:34:31;5.30;;;3.50;;
77170;SDS011;66144;50.020;14.422;2023-07-02T11:36:57;5.55;;;3.40;;
77170;SDS011;66144;50.020;14.422;2023-07-02T11:39:23;4.45;;;3.20;;
77170;SDS011;66144;50.020;14.422;2023-07-02T11:41:49;5.07;;;3.45;;
77170;SDS011;66144;50.020;14.422;2023-07-02T11:44:15;6.28;;;3.22;;
77170;SDS011;66144;50.020;14.422;2023-07-02T11:46:41;5.53;;;3.50;;
77170;SDS011;66144;50.020;14.422;2023-07-02T11:49:06;5.30;;;3.10;;
77170;SDS011;66144;50.020;14.422;2023-07-02T11:51:35;6.28;;;3.60;;
77170;SDS011;66144;50.020;14.422;2023-07-02T11:54:02;5.63;;;3.65;;
77170;SDS011;66144;50.020;14.422;2023-07-02T11:56:28;5.78;;;3.33;;
77170;SDS011;66144;50.020;14.422;2023-07-02T11:58:53;5.35;;;3.22;;
77170;SDS011;66144;50.020;14.422;2023-07-02T12:01:18;4.93;;;3.30;;
77170;SDS011;66144;50.020;14.422;2023-07-02T12:03:44;5.20;;;3.33;;
77170;SDS011;66144;50.020;14.422;2023-07-02T12:06:10;6.32;;;3.75;;
77170;SDS011;66144;50.020;14.422;2023-07-02T12:08:35;4.30;;;2.88;;
77170;SDS011;66144;50.020;14.422;2023-07-02T12:11:01;5.28;;;3.13;;
77170;SDS011;66144;50.020;14.422;2023-07-02T12:13:26;4.57;;;3.22;;
77170;SDS011;66144;50.020;14.422;2023-07-02T12:15:52;5.13;;;3.30;;
77170;SDS011;66144;50.020;14.422;2023-07-02T12:18:17;7.28;;;3.20;;
77170;SDS011;66144;50.020;14.422;2023-07-02T12:20:42;4.38;;;2.92;;
77170;SDS011;66144;50.020;14.422;2023-07-02T12:23:08;4.63;;;2.80;;
77170;SDS011;66144;50.020;14.422;2023-07-02T12:25:35;3.85;;;2.90;;
77170;SDS011;66144;50.020;14.422;2023-07-02T12:28:01;4.25;;;2.90;;
77170;SDS011;66144;50.020;14.422;2023-07-02T12:30:28;5.68;;;3.10;;
77170;SDS011;66144;50.020;14.422;2023-07-02T12:32:53;4.55;;;2.90;;
77170;SDS011;66144;50.020;14.422;2023-07-02T12:35:19;4.25;;;2.75;;
77170;SDS011;66144;50.020;14.422;2023-07-02T12:37:45;7.03;;;3.17;;
77170;SDS011;66144;50.020;14.422;2023-07-02T12:40:12;6.13;;;3.22;;
77170;SDS011;66144;50.020;14.422;2023-07-02T12:42:38;4.68;;;2.70;;
77170;SDS011;66144;50.020;14.422;2023-07-02T12:45:05;4.57;;;3.13;;
77170;SDS011;66144;50.020;14.422;2023-07-02T12:47:30;5.55;;;3.40;;
77170;SDS011;66144;50.020;14.422;2023-07-02T12:49:56;4.50;;;2.78;;
77170;SDS011;66144;50.020;14.422;2023-07-02T12:52:21;5.68;;;3.33;;
77170;SDS011;66144;50.020;14.422;2023-07-02T12:54:47;6.93;;;2.88;;
77170;SDS011;66144;50.020;14.422;2023-07-02T12:57:12;6.68;;;3.40;;
77170;SDS011;66144;50.020;14.422;2023-07-02T12:59:37;5.93;;;3.15;;
77170;SDS011;66144;50.020;14.422;2023-07-02T13:02:03;5.47;;;3.10;;
77170;SDS011;66144;50.020;14.422;2023-07-02T13:04:28;4.28;;;3.00;;
77170;SDS011;66144;50.020;14.422;2023-07-02T13:06:54;5.80;;;3.25;;
77170;SDS011;66144;50.020;14.422;2023-07-02T13:09:19;6.22;;;3.05;;
77170;SDS011;66144;50.020;14.422;2023-07-02T13:11:44;8.27;;;3.10;;
77170;SDS011;66144;50.020;14.422;2023-07-02T13:14:11;5.93;;;2.70;;
77170;SDS011;66144;50.020;14.422;2023-07-02T13:16:36;5.47;;;2.45;;
77170;SDS011;66144;50.020;14.422;2023-07-02T13:19:02;3.90;;;2.20;;
77170;SDS011;66144;50.020;14.422;2023-07-02T13:21:27;5.22;;;2.55;;
77170;SDS011;66144;50.020;14.422;2023-07-02T13:23:53;3.50;;;2.33;;
77170;SDS011;66144;50.020;14.422;2023-07-02T13:26:18;5.00;;;2.35;;
77170;SDS011;66144;50.020;14.422;2023-07-02T13:28:45;4.13;;;2.13;;
77170;SDS011;66144;50.020;14.422;2023-07-02T13:31:12;6.65;;;2.30;;
77170;SDS011;66144;50.020;14.422;2023-07-02T13:33:38;2.95;;;2.05;;
77170;SDS011;66144;50.020;14.422;2023-07-02T13:36:04;3.25;;;1.90;;
77170;SDS011;66144;50.020;14.422;2023-07-02T13:38:30;3.03;;;2.17;;
77170;SDS011;66144;50.020;14.422;2023-07-02T13:40:56;2.78;;;1.75;;
77170;SDS011;66144;50.020;14.422;2023-07-02T13:43:21;3.00;;;1.92;;
77170;SDS011;66144;50.020;14.422;2023-07-02T13:45:47;3.42;;;1.98;;
77170;SDS011;66144;50.020;14.422;2023-07-02T13:48:12;2.38;;;1.80;;
77170;SDS011;66144;50.020;14.422;2023-07-02T13:50:38;2.97;;;1.80;;
77170;SDS011;66144;50.020;14.422;2023-07-02T13:53:03;3.22;;;1.90;;
77170;SDS011;66144;50.020;14.422;2023-07-02T13:55:29;3.58;;;1.90;;
77170;SDS011;66144;50.020;14.422;2023-07-02T13:57:55;3.58;;;2.20;;
77170;SDS011;66144;50.020;14.422;2023-07-02T14:00:22;2.90;;;2.17;;
77170;SDS011;66144;50.020;14.422;2023-07-02T14:02:54;3.40;;;2.03;;
77170;SDS011;66144;50.020;14.422;2023-07-02T14:05:20;4.63;;;2.03;;
77170;SDS011;66144;50.020;14.422;2023-07-02T14:07:45;4.05;;;2.10;;
77170;SDS011;66144;50.020;14.422;2023-07-02T14:10:11;3.80;;;1.98;;
77170;SDS011;66144;50.020;14.422;2023-07-02T14:12:38;4.53;;;2.45;;
77170;SDS011;66144;50.020;14.422;2023-07-02T14:15:04;4.35;;;2.30;;
77170;SDS011;66144;50.020;14.422;2023-07-02T14:17:30;4.35;;;2.00;;
77170;SDS011;66144;50.020;14.422;2023-07-02T14:19:56;6.85;;;4.75;;
77170;SDS011;66144;50.020;14.422;2023-07-02T14:22:22;4.43;;;2.40;;
77170;SDS011;66144;50.020;14.422;2023-07-02T14:24:48;3.38;;;2.17;;
77170;SDS011;66144;50.020;14.422;2023-07-02T14:27:13;4.20;;;2.17;;
77170;SDS011;66144;50.020;14.422;2023-07-02T14:29:39;4.63;;;2.60;;
77170;SDS011;66144;50.020;14.422;2023-07-02T14:32:04;3.90;;;1.92;;
77170;SDS011;66144;50.020;14.422;2023-07-02T14:34:30;4.05;;;2.45;;
77170;SDS011;66144;50.020;14.422;2023-07-02T14:36:56;3.08;;;1.67;;